CheckWX is a tool to help pilots better visualize weather data.  It is not intended as a substitute for an official pre-flight weather briefing.

12:48:39 UTC

KMIA TAF
Miami International Airport
Miami, Florida, USA
KMIA 191145Z 1912/2018 04010KT P6SM SCT030 SCT050 FM191500 06013G23KT P6SM VCSH SCT030 SCT050 FM200200 07013KT P6SM SCT030 SCT050 FM201500 07015G25KT P6SM BKN050

Sep-19@
12:00 UTC

Sep-19 @ 12:00 UTC

Sep-19@
15:00 UTC

Sep-19 @ 15:00 UTC

KMIA 191145Z 1912/2018 04010KT P6SM SCT030 SCT050
Wind
  • 040° at 10 KTS
Cloud Levels
  • Scattered at 3,000' AGL
  • Scattered at 5,000' AGL

Sep-19@
15:00 UTC

Sep-19 @ 15:00 UTC

Sep-20@
02:00 UTC

Sep-20 @ 02:00 UTC

FM191500 06013G23KT P6SM VCSH SCT030 SCT050

From

From Standard forecast or significant change

Wind
  • 060° at 13 KTS
  • {Gusting to 23 KTS
Cloud Levels
  • Scattered at 3,000' AGL
  • Scattered at 5,000' AGL

Sep-20@
02:00 UTC

Sep-20 @ 02:00 UTC

Sep-20@
15:00 UTC

Sep-20 @ 15:00 UTC

FM200200 07013KT P6SM SCT030 SCT050

From

From Standard forecast or significant change

Wind
  • 070° at 13 KTS
Cloud Levels
  • Scattered at 3,000' AGL
  • Scattered at 5,000' AGL

Sep-20@
15:00 UTC

Sep-20 @ 15:00 UTC

Sep-20@
18:00 UTC

Sep-20 @ 18:00 UTC

FM201500 07015G25KT P6SM BKN050

From

From Standard forecast or significant change

Wind
  • 070° at 15 KTS
  • {Gusting to 25 KTS
Cloud Levels
  • Broken at 5,000' AGL